sensor_id;sensor_type;location;lat;lon;timestamp;temperature;humidity
10828;DHT22;5467;59.334;13.512;2023-04-28T00:02:13;2.50;99.90
10828;DHT22;5467;59.334;13.512;2023-04-28T00:04:40;2.60;99.90
10828;DHT22;5467;59.334;13.512;2023-04-28T00:07:07;2.70;99.90
10828;DHT22;5467;59.334;13.512;2023-04-28T00:09:36;2.60;99.90
10828;DHT22;5467;59.334;13.512;2023-04-28T00:12:03;2.50;99.90
10828;DHT22;5467;59.334;13.512;2023-04-28T00:14:31;2.40;99.90
10828;DHT22;5467;59.334;13.512;2023-04-28T00:16:58;2.30;99.90
10828;DHT22;5467;59.334;13.512;2023-04-28T00:19:25;2.30;99.90
10828;DHT22;5467;59.334;13.512;2023-04-28T00:21:52;2.40;99.90
10828;DHT22;5467;59.334;13.512;2023-04-28T00:24:19;2.50;99.90
10828;DHT22;5467;59.334;13.512;2023-04-28T00:26:48;2.40;99.90
10828;DHT22;5467;59.334;13.512;2023-04-28T00:29:15;2.40;99.90
10828;DHT22;5467;59.334;13.512;2023-04-28T00:31:43;2.40;99.90
10828;DHT22;5467;59.334;13.512;2023-04-28T00:34:10;2.50;99.90
10828;DHT22;5467;59.334;13.512;2023-04-28T00:36:39;2.40;99.90
10828;DHT22;5467;59.334;13.512;2023-04-28T00:39:07;2.30;99.90
10828;DHT22;5467;59.334;13.512;2023-04-28T00:41:34;2.30;99.90
10828;DHT22;5467;59.334;13.512;2023-04-28T00:44:03;2.50;99.90
10828;DHT22;5467;59.334;13.512;2023-04-28T00:46:30;2.50;99.90
10828;DHT22;5467;59.334;13.512;2023-04-28T00:48:59;2.60;99.90
10828;DHT22;5467;59.334;13.512;2023-04-28T00:51:26;2.60;99.90
10828;DHT22;5467;59.334;13.512;2023-04-28T00:53:53;2.60;99.90
10828;DHT22;5467;59.334;13.512;2023-04-28T00:56:21;2.60;99.90
10828;DHT22;5467;59.334;13.512;2023-04-28T00:58:48;2.50;99.90
10828;DHT22;5467;59.334;13.512;2023-04-28T01:01:16;2.40;99.90
10828;DHT22;5467;59.334;13.512;2023-04-28T01:03:44;2.30;99.90
10828;DHT22;5467;59.334;13.512;2023-04-28T01:06:11;2.40;99.90
10828;DHT22;5467;59.334;13.512;2023-04-28T01:08:38;2.30;99.90
10828;DHT22;5467;59.334;13.512;2023-04-28T01:11:07;2.30;99.90
10828;DHT22;5467;59.334;13.512;2023-04-28T01:13:35;2.30;99.90
10828;DHT22;5467;59.334;13.512;2023-04-28T01:16:02;2.30;99.90
10828;DHT22;5467;59.334;13.512;2023-04-28T01:18:31;2.30;99.90
10828;DHT22;5467;59.334;13.512;2023-04-28T01:20:58;2.30;99.90
10828;DHT22;5467;59.334;13.512;2023-04-28T01:23:25;2.10;99.90
10828;DHT22;5467;59.334;13.512;2023-04-28T01:25:54;2.00;99.90
10828;DHT22;5467;59.334;13.512;2023-04-28T01:28:21;2.00;99.90
10828;DHT22;5467;59.334;13.512;2023-04-28T01:30:48;2.00;99.90
10828;DHT22;5467;59.334;13.512;2023-04-28T01:33:15;1.90;99.90
10828;DHT22;5467;59.334;13.512;2023-04-28T01:35:42;1.90;99.90
10828;DHT22;5467;59.334;13.512;2023-04-28T01:38:09;1.90;99.90
10828;DHT22;5467;59.334;13.512;2023-04-28T01:40:36;1.90;99.90
10828;DHT22;5467;59.334;13.512;2023-04-28T01:43:05;2.00;99.90
10828;DHT22;5467;59.334;13.512;2023-04-28T01:45:32;1.80;99.90
10828;DHT22;5467;59.334;13.512;2023-04-28T01:47:59;1.80;99.90
10828;DHT22;5467;59.334;13.512;2023-04-28T01:50:26;1.80;99.90
10828;DHT22;5467;59.334;13.512;2023-04-28T01:52:53;1.90;99.90
10828;DHT22;5467;59.334;13.512;2023-04-28T01:55:20;1.90;99.90
10828;DHT22;5467;59.334;13.512;2023-04-28T01:57:47;1.90;99.90
10828;DHT22;5467;59.334;13.512;2023-04-28T02:00:16;1.80;99.90
10828;DHT22;5467;59.334;13.512;2023-04-28T02:02:44;1.80;99.90
10828;DHT22;5467;59.334;13.512;2023-04-28T02:05:11;1.80;99.90
10828;DHT22;5467;59.334;13.512;2023-04-28T02:07:38;1.70;99.90
10828;DHT22;5467;59.334;13.512;2023-04-28T02:10:06;1.70;99.90
10828;DHT22;5467;59.334;13.512;2023-04-28T02:12:33;1.80;99.90
10828;DHT22;5467;59.334;13.512;2023-04-28T02:15:00;1.70;99.90
10828;DHT22;5467;59.334;13.512;2023-04-28T02:17:30;1.50;99.90
10828;DHT22;5467;59.334;13.512;2023-04-28T02:19:57;1.60;99.90
10828;DHT22;5467;59.334;13.512;2023-04-28T02:22:24;1.50;99.90
10828;DHT22;5467;59.334;13.512;2023-04-28T02:24:51;1.50;99.90
10828;DHT22;5467;59.334;13.512;2023-04-28T02:27:18;1.60;99.90
10828;DHT22;5467;59.334;13.512;2023-04-28T02:29:46;1.60;99.90
10828;DHT22;5467;59.334;13.512;2023-04-28T02:32:13;1.70;99.90
10828;DHT22;5467;59.334;13.512;2023-04-28T02:34:41;1.60;99.90
10828;DHT22;5467;59.334;13.512;2023-04-28T02:37:08;1.70;99.90
10828;DHT22;5467;59.334;13.512;2023-04-28T02:39:35;1.60;99.90
10828;DHT22;5467;59.334;13.512;2023-04-28T02:42:03;1.50;99.90
10828;DHT22;5467;59.334;13.512;2023-04-28T02:44:30;0.70;99.90
10828;DHT22;5467;59.334;13.512;2023-04-28T02:46:57;1.20;99.90
10828;DHT22;5467;59.334;13.512;2023-04-28T02:49:25;1.20;99.90
10828;DHT22;5467;59.334;13.512;2023-04-28T02:51:53;1.10;99.90
10828;DHT22;5467;59.334;13.512;2023-04-28T02:54:20;1.10;99.90
10828;DHT22;5467;59.334;13.512;2023-04-28T02:56:52;1.10;99.90
10828;DHT22;5467;59.334;13.512;2023-04-28T02:59:19;1.10;99.90
10828;DHT22;5467;59.334;13.512;2023-04-28T03:01:47;0.90;99.90
10828;DHT22;5467;59.334;13.512;2023-04-28T03:04:14;0.90;99.90
10828;DHT22;5467;59.334;13.512;2023-04-28T03:06:41;0.90;99.90
10828;DHT22;5467;59.334;13.512;2023-04-28T03:09:10;0.90;99.90
10828;DHT22;5467;59.334;13.512;2023-04-28T03:11:37;1.00;99.90
10828;DHT22;5467;59.334;13.512;2023-04-28T03:14:04;0.90;99.90
10828;DHT22;5467;59.334;13.512;2023-04-28T03:16:31;0.90;99.90
10828;DHT22;5467;59.334;13.512;2023-04-28T03:18:59;0.90;99.90
10828;DHT22;5467;59.334;13.512;2023-04-28T03:21:26;0.90;99.90
10828;DHT22;5467;59.334;13.512;2023-04-28T03:23:53;0.90;99.90
10828;DHT22;5467;59.334;13.512;2023-04-28T03:26:22;0.90;99.90
10828;DHT22;5467;59.334;13.512;2023-04-28T03:28:49;0.80;99.90
10828;DHT22;5467;59.334;13.512;2023-04-28T03:31:16;0.90;99.90
10828;DHT22;5467;59.334;13.512;2023-04-28T03:33:43;0.90;99.90
10828;DHT22;5467;59.334;13.512;2023-04-28T03:36:11;1.00;99.90
10828;DHT22;5467;59.334;13.512;2023-04-28T03:38:38;1.00;99.90
10828;DHT22;5467;59.334;13.512;2023-04-28T03:41:06;1.00;99.90
10828;DHT22;5467;59.334;13.512;2023-04-28T03:43:34;1.10;99.90
10828;DHT22;5467;59.334;13.512;2023-04-28T03:46:02;1.20;99.90
10828;DHT22;5467;59.334;13.512;2023-04-28T03:48:29;1.10;99.90
10828;DHT22;5467;59.334;13.512;2023-04-28T03:50:56;1.20;99.90
10828;DHT22;5467;59.334;13.512;2023-04-28T03:53:23;1.30;99.90
10828;DHT22;5467;59.334;13.512;2023-04-28T03:55:51;1.40;99.90
10828;DHT22;5467;59.334;13.512;2023-04-28T03:58:18;1.40;99.90
10828;DHT22;5467;59.334;13.512;2023-04-28T04:00:47;1.40;99.90
10828;DHT22;5467;59.334;13.512;2023-04-28T04:03:14;1.40;99.90
10828;DHT22;5467;59.334;13.512;2023-04-28T04:05:41;1.50;99.90
10828;DHT22;5467;59.334;13.512;2023-04-28T04:08:08;1.50;99.90
10828;DHT22;5467;59.334;13.512;2023-04-28T04:10:35;1.50;99.90
10828;DHT22;5467;59.334;13.512;2023-04-28T04:13:02;1.50;99.90
10828;DHT22;5467;59.334;13.512;2023-04-28T04:15:29;1.50;99.90
10828;DHT22;5467;59.334;13.512;2023-04-28T04:17:58;1.50;99.90
10828;DHT22;5467;59.334;13.512;2023-04-28T04:20:25;1.40;99.90
10828;DHT22;5467;59.334;13.512;2023-04-28T04:22:52;1.10;99.90
10828;DHT22;5467;59.334;13.512;2023-04-28T04:25:19;1.10;99.90
10828;DHT22;5467;59.334;13.512;2023-04-28T04:27:46;0.90;99.90
10828;DHT22;5467;59.334;13.512;2023-04-28T04:30:13;0.80;99.90
10828;DHT22;5467;59.334;13.512;2023-04-28T04:32:40;0.80;99.90
10828;DHT22;5467;59.334;13.512;2023-04-28T04:35:09;0.90;99.90
10828;DHT22;5467;59.334;13.512;2023-04-28T04:37:36;0.90;99.90
10828;DHT22;5467;59.334;13.512;2023-04-28T04:40:04;1.00;99.90
10828;DHT22;5467;59.334;13.512;2023-04-28T04:42:32;1.10;99.90
10828;DHT22;5467;59.334;13.512;2023-04-28T04:44:59;1.20;99.90
10828;DHT22;5467;59.334;13.512;2023-04-28T04:47:26;1.30;99.90
10828;DHT22;5467;59.334;13.512;2023-04-28T04:49:54;1.30;99.90
10828;DHT22;5467;59.334;13.512;2023-04-28T04:52:22;1.40;99.90
10828;DHT22;5467;59.334;13.512;2023-04-28T04:54:49;1.70;99.90
10828;DHT22;5467;59.334;13.512;2023-04-28T04:57:16;2.20;99.90
10828;DHT22;5467;59.334;13.512;2023-04-28T04:59:44;2.90;99.90
10828;DHT22;5467;59.334;13.512;2023-04-28T05:02:11;3.60;99.90
10828;DHT22;5467;59.334;13.512;2023-04-28T05:04:38;4.30;99.90
10828;DHT22;5467;59.334;13.512;2023-04-28T05:07:05;4.90;99.90
10828;DHT22;5467;59.334;13.512;2023-04-28T05:09:34;5.50;99.90
10828;DHT22;5467;59.334;13.512;2023-04-28T05:12:01;6.00;99.90
10828;DHT22;5467;59.334;13.512;2023-04-28T05:14:28;6.30;99.90
10828;DHT22;5467;59.334;13.512;2023-04-28T05:16:55;6.50;99.90
10828;DHT22;5467;59.334;13.512;2023-04-28T05:19:22;6.70;99.90
10828;DHT22;5467;59.334;13.512;2023-04-28T05:21:50;6.90;99.90
10828;DHT22;5467;59.334;13.512;2023-04-28T05:24:20;7.20;99.90
10828;DHT22;5467;59.334;13.512;2023-04-28T05:26:49;7.80;99.90
10828;DHT22;5467;59.334;13.512;2023-04-28T05:29:17;8.10;99.90
10828;DHT22;5467;59.334;13.512;2023-04-28T05:31:44;8.10;99.90
10828;DHT22;5467;59.334;13.512;2023-04-28T05:34:11;8.30;99.90
10828;DHT22;5467;59.334;13.512;2023-04-28T05:36:38;8.50;99.90
10828;DHT22;5467;59.334;13.512;2023-04-28T05:39:06;8.50;99.90
10828;DHT22;5467;59.334;13.512;2023-04-28T05:41:34;8.10;99.90
10828;DHT22;5467;59.334;13.512;2023-04-28T05:44:03;7.70;99.90
10828;DHT22;5467;59.334;13.512;2023-04-28T05:46:30;7.50;99.90
10828;DHT22;5467;59.334;13.512;2023-04-28T05:48:57;7.40;99.90
10828;DHT22;5467;59.334;13.512;2023-04-28T05:51:24;6.90;99.90
10828;DHT22;5467;59.334;13.512;2023-04-28T05:53:53;6.90;99.90
10828;DHT22;5467;59.334;13.512;2023-04-28T05:56:20;7.00;99.90
10828;DHT22;5467;59.334;13.512;2023-04-28T05:58:47;7.20;99.90
10828;DHT22;5467;59.334;13.512;2023-04-28T06:01:17;7.10;99.90
10828;DHT22;5467;59.334;13.512;2023-04-28T06:03:44;7.30;99.90
10828;DHT22;5467;59.334;13.512;2023-04-28T06:06:11;7.30;99.90
10828;DHT22;5467;59.334;13.512;2023-04-28T06:08:38;7.50;99.90
10828;DHT22;5467;59.334;13.512;2023-04-28T06:11:05;7.60;99.90
10828;DHT22;5467;59.334;13.512;2023-04-28T06:13:33;7.90;99.90
10828;DHT22;5467;59.334;13.512;2023-04-28T06:16:00;7.90;99.90
10828;DHT22;5467;59.334;13.512;2023-04-28T06:18:30;8.10;99.90
10828;DHT22;5467;59.334;13.512;2023-04-28T06:20:57;8.10;99.90
10828;DHT22;5467;59.334;13.512;2023-04-28T06:23:24;8.00;99.90
10828;DHT22;5467;59.334;13.512;2023-04-28T06:25:51;7.60;99.90
10828;DHT22;5467;59.334;13.512;2023-04-28T06:28:19;7.30;99.90
10828;DHT22;5467;59.334;13.512;2023-04-28T06:30:46;7.50;99.90
10828;DHT22;5467;59.334;13.512;2023-04-28T06:33:13;7.50;99.90
10828;DHT22;5467;59.334;13.512;2023-04-28T06:35:41;7.80;99.90
10828;DHT22;5467;59.334;13.512;2023-04-28T06:38:08;7.90;99.90
10828;DHT22;5467;59.334;13.512;2023-04-28T06:40:36;8.00;99.90
10828;DHT22;5467;59.334;13.512;2023-04-28T06:43:04;8.00;99.90
10828;DHT22;5467;59.334;13.512;2023-04-28T06:45:31;8.00;99.90
10828;DHT22;5467;59.334;13.512;2023-04-28T06:47:59;8.00;99.90
10828;DHT22;5467;59.334;13.512;2023-04-28T06:50:26;8.10;99.90
10828;DHT22;5467;59.334;13.512;2023-04-28T06:52:54;8.10;99.90
10828;DHT22;5467;59.334;13.512;2023-04-28T06:55:21;8.30;99.90
10828;DHT22;5467;59.334;13.512;2023-04-28T06:57:49;8.10;99.90
10828;DHT22;5467;59.334;13.512;2023-04-28T07:00:16;8.10;99.90
10828;DHT22;5467;59.334;13.512;2023-04-28T07:02:43;8.30;99.90
10828;DHT22;5467;59.334;13.512;2023-04-28T07:05:11;7.90;99.90
10828;DHT22;5467;59.334;13.512;2023-04-28T07:07:38;7.90;99.90
10828;DHT22;5467;59.334;13.512;2023-04-28T07:10:08;8.00;99.90
10828;DHT22;5467;59.334;13.512;2023-04-28T07:12:36;8.50;99.90
10828;DHT22;5467;59.334;13.512;2023-04-28T07:15:03;8.30;99.90
10828;DHT22;5467;59.334;13.512;2023-04-28T07:17:31;8.40;99.90
10828;DHT22;5467;59.334;13.512;2023-04-28T07:19:58;8.80;99.90
10828;DHT22;5467;59.334;13.512;2023-04-28T07:22:25;8.70;99.90
10828;DHT22;5467;59.334;13.512;2023-04-28T07:24:54;8.00;99.90
10828;DHT22;5467;59.334;13.512;2023-04-28T07:27:23;8.00;99.90
10828;DHT22;5467;59.334;13.512;2023-04-28T07:29:50;8.20;99.90
10828;DHT22;5467;59.334;13.512;2023-04-28T07:32:17;8.30;99.90
10828;DHT22;5467;59.334;13.512;2023-04-28T07:34:45;8.40;99.90
10828;DHT22;5467;59.334;13.512;2023-04-28T07:37:12;8.40;99.90
10828;DHT22;5467;59.334;13.512;2023-04-28T07:39:39;8.50;99.90
10828;DHT22;5467;59.334;13.512;2023-04-28T07:42:07;8.60;99.90
10828;DHT22;5467;59.334;13.512;2023-04-28T07:44:35;8.80;99.90
10828;DHT22;5467;59.334;13.512;2023-04-28T07:47:02;8.70;99.90
10828;DHT22;5467;59.334;13.512;2023-04-28T07:49:30;8.90;99.90
10828;DHT22;5467;59.334;13.512;2023-04-28T07:51:59;9.00;99.90
10828;DHT22;5467;59.334;13.512;2023-04-28T07:54:27;8.70;99.90
10828;DHT22;5467;59.334;13.512;2023-04-28T07:56:55;8.10;99.90
10828;DHT22;5467;59.334;13.512;2023-04-28T07:59:23;8.10;99.90
10828;DHT22;5467;59.334;13.512;2023-04-28T08:01:52;8.40;99.90
10828;DHT22;5467;59.334;13.512;2023-04-28T08:04:19;8.50;99.90
10828;DHT22;5467;59.334;13.512;2023-04-28T08:06:46;8.90;99.90
10828;DHT22;5467;59.334;13.512;2023-04-28T08:09:13;8.70;99.90
10828;DHT22;5467;59.334;13.512;2023-04-28T08:11:41;8.70;99.90
10828;DHT22;5467;59.334;13.512;2023-04-28T08:14:08;8.90;99.90
10828;DHT22;5467;59.334;13.512;2023-04-28T08:16:35;9.40;99.90
10828;DHT22;5467;59.334;13.512;2023-04-28T08:19:06;9.70;99.90
10828;DHT22;5467;59.334;13.512;2023-04-28T08:21:33;9.90;99.90
10828;DHT22;5467;59.334;13.512;2023-04-28T08:24:03;10.00;99.90
10828;DHT22;5467;59.334;13.512;2023-04-28T08:26:30;9.40;99.90
10828;DHT22;5467;59.334;13.512;2023-04-28T08:28:57;9.80;99.90
10828;DHT22;5467;59.334;13.512;2023-04-28T08:31:24;10.20;99.90
10828;DHT22;5467;59.334;13.512;2023-04-28T08:33:52;10.50;99.90
10828;DHT22;5467;59.334;13.512;2023-04-28T08:36:20;10.60;99.90
10828;DHT22;5467;59.334;13.512;2023-04-28T08:38:48;10.80;99.90
10828;DHT22;5467;59.334;13.512;2023-04-28T08:41:15;10.90;99.90
10828;DHT22;5467;59.334;13.512;2023-04-28T08:43:44;10.60;99.90
10828;DHT22;5467;59.334;13.512;2023-04-28T08:46:13;10.20;99.90
10828;DHT22;5467;59.334;13.512;2023-04-28T08:48:43;10.40;99.90
10828;DHT22;5467;59.334;13.512;2023-04-28T08:51:14;10.70;99.90
10828;DHT22;5467;59.334;13.512;2023-04-28T08:53:48;10.90;99.90
10828;DHT22;5467;59.334;13.512;2023-04-28T08:56:17;10.90;99.90
10828;DHT22;5467;59.334;13.512;2023-04-28T08:58:44;10.90;99.90
10828;DHT22;5467;59.334;13.512;2023-04-28T09:01:11;11.00;99.90
10828;DHT22;5467;59.334;13.512;2023-04-28T09:03:39;11.00;99.90
10828;DHT22;5467;59.334;13.512;2023-04-28T09:06:06;10.80;99.90
10828;DHT22;5467;59.334;13.512;2023-04-28T09:08:33;10.90;99.90
10828;DHT22;5467;59.334;13.512;2023-04-28T09:11:09;10.80;99.90
10828;DHT22;5467;59.334;13.512;2023-04-28T09:13:38;10.80;99.90
10828;DHT22;5467;59.334;13.512;2023-04-28T09:16:06;10.50;99.90
10828;DHT22;5467;59.334;13.512;2023-04-28T09:18:33;10.60;99.90
10828;DHT22;5467;59.334;13.512;2023-04-28T09:21:05;10.80;99.90
10828;DHT22;5467;59.334;13.512;2023-04-28T09:23:32;11.00;99.90
10828;DHT22;5467;59.334;13.512;2023-04-28T09:26:01;10.80;99.90
10828;DHT22;5467;59.334;13.512;2023-04-28T09:28:34;11.00;99.90
10828;DHT22;5467;59.334;13.512;2023-04-28T09:31:01;11.20;99.90
10828;DHT22;5467;59.334;13.512;2023-04-28T09:33:29;11.30;99.90
10828;DHT22;5467;59.334;13.512;2023-04-28T09:35:56;11.30;99.90
10828;DHT22;5467;59.334;13.512;2023-04-28T09:38:23;11.20;99.90
10828;DHT22;5467;59.334;13.512;2023-04-28T09:40:55;11.50;99.90
10828;DHT22;5467;59.334;13.512;2023-04-28T09:43:25;11.50;99.90
10828;DHT22;5467;59.334;13.512;2023-04-28T09:45:54;11.30;99.90
10828;DHT22;5467;59.334;13.512;2023-04-28T09:48:30;11.00;99.90
10828;DHT22;5467;59.334;13.512;2023-04-28T09:51:00;10.40;99.90
10828;DHT22;5467;59.334;13.512;2023-04-28T09:53:29;10.80;99.90
10828;DHT22;5467;59.334;13.512;2023-04-28T09:55:58;11.10;99.90
10828;DHT22;5467;59.334;13.512;2023-04-28T09:58:27;11.30;99.90
10828;DHT22;5467;59.334;13.512;2023-04-28T10:00:57;11.50;99.90
10828;DHT22;5467;59.334;13.512;2023-04-28T10:03:25;11.40;99.90
10828;DHT22;5467;59.334;13.512;2023-04-28T10:05:53;11.50;99.90
10828;DHT22;5467;59.334;13.512;2023-04-28T10:08:21;11.70;99.90
10828;DHT22;5467;59.334;13.512;2023-04-28T10:10:50;11.90;99.90
10828;DHT22;5467;59.334;13.512;2023-04-28T10:13:19;12.20;99.90
10828;DHT22;5467;59.334;13.512;2023-04-28T10:15:47;12.50;99.90
10828;DHT22;5467;59.334;13.512;2023-04-28T10:18:16;12.60;99.90
10828;DHT22;5467;59.334;13.512;2023-04-28T10:20:45;12.60;99.90
10828;DHT22;5467;59.334;13.512;2023-04-28T10:23:41;12.70;99.90
10828;DHT22;5467;59.334;13.512;2023-04-28T10:26:13;12.30;99.90
10828;DHT22;5467;59.334;13.512;2023-04-28T10:28:47;11.90;99.90
10828;DHT22;5467;59.334;13.512;2023-04-28T10:31:15;11.80;99.90
10828;DHT22;5467;59.334;13.512;2023-04-28T10:33:44;12.10;99.90
10828;DHT22;5467;59.334;13.512;2023-04-28T10:36:47;12.20;99.90
10828;DHT22;5467;59.334;13.512;2023-04-28T10:39:15;12.10;99.90
10828;DHT22;5467;59.334;13.512;2023-04-28T10:41:43;12.10;99.90
10828;DHT22;5467;59.334;13.512;2023-04-28T10:44:42;11.90;99.90
10828;DHT22;5467;59.334;13.512;2023-04-28T10:47:09;12.00;99.90
10828;DHT22;5467;59.334;13.512;2023-04-28T10:50:09;12.10;99.90
10828;DHT22;5467;59.334;13.512;2023-04-28T10:52:49;12.10;99.90
10828;DHT22;5467;59.334;13.512;2023-04-28T10:55:27;12.10;99.90
10828;DHT22;5467;59.334;13.512;2023-04-28T10:58:31;12.10;99.90
10828;DHT22;5467;59.334;13.512;2023-04-28T11:01:24;12.00;99.90
10828;DHT22;5467;59.334;13.512;2023-04-28T11:03:52;12.20;99.90
10828;DHT22;5467;59.334;13.512;2023-04-28T11:06:27;12.40;99.90
10828;DHT22;5467;59.334;13.512;2023-04-28T11:08:55;12.30;99.90
10828;DHT22;5467;59.334;13.512;2023-04-28T11:11:24;12.10;99.90
10828;DHT22;5467;59.334;13.512;2023-04-28T11:13:52;12.00;99.90
10828;DHT22;5467;59.334;13.512;2023-04-28T11:16:24;12.20;99.90
10828;DHT22;5467;59.334;13.512;2023-04-28T11:18:59;12.10;99.90
10828;DHT22;5467;59.334;13.512;2023-04-28T11:21:31;12.00;99.90
10828;DHT22;5467;59.334;13.512;2023-04-28T11:23:58;12.00;99.90
10828;DHT22;5467;59.334;13.512;2023-04-28T11:26:26;12.10;99.90
10828;DHT22;5467;59.334;13.512;2023-04-28T11:28:55;12.20;99.90
10828;DHT22;5467;59.334;13.512;2023-04-28T11:31:24;12.30;99.90
10828;DHT22;5467;59.334;13.512;2023-04-28T11:33:56;12.50;99.90
10828;DHT22;5467;59.334;13.512;2023-04-28T11:36:33;12.60;99.90
10828;DHT22;5467;59.334;13.512;2023-04-28T11:39:01;12.90;99.90
10828;DHT22;5467;59.334;13.512;2023-04-28T11:41:32;12.80;99.90
10828;DHT22;5467;59.334;13.512;2023-04-28T11:44:00;12.90;99.90
10828;DHT22;5467;59.334;13.512;2023-04-28T11:46:35;12.90;99.90
10828;DHT22;5467;59.334;13.512;2023-04-28T11:49:10;12.70;99.90
10828;DHT22;5467;59.334;13.512;2023-04-28T11:51:38;12.80;99.90
10828;DHT22;5467;59.334;13.512;2023-04-28T11:54:07;12.80;99.90
10828;DHT22;5467;59.334;13.512;2023-04-28T11:56:37;12.80;99.90
10828;DHT22;5467;59.334;13.512;2023-04-28T11:59:06;12.80;99.90
10828;DHT22;5467;59.334;13.512;2023-04-28T12:01:43;13.00;99.90
10828;DHT22;5467;59.334;13.512;2023-04-28T12:04:11;13.10;99.90
10828;DHT22;5467;59.334;13.512;2023-04-28T12:06:40;13.20;99.90
10828;DHT22;5467;59.334;13.512;2023-04-28T12:09:17;13.30;99.90
10828;DHT22;5467;59.334;13.512;2023-04-28T12:11:53;13.20;99.90
10828;DHT22;5467;59.334;13.512;2023-04-28T12:14:21;12.90;99.90
10828;DHT22;5467;59.334;13.512;2023-04-28T12:16:49;12.60;99.90
10828;DHT22;5467;59.334;13.512;2023-04-28T12:19:17;12.40;99.90
10828;DHT22;5467;59.334;13.512;2023-04-28T12:22:00;12.40;99.90
10828;DHT22;5467;59.334;13.512;2023-04-28T12:24:27;12.50;99.90
10828;DHT22;5467;59.334;13.512;2023-04-28T12:27:12;12.30;99.90
10828;DHT22;5467;59.334;13.512;2023-04-28T12:29:40;12.20;99.90
10828;DHT22;5467;59.334;13.512;2023-04-28T12:32:09;12.00;99.90
10828;DHT22;5467;59.334;13.512;2023-04-28T12:34:39;11.90;99.90
10828;DHT22;5467;59.334;13.512;2023-04-28T12:37:08;12.00;99.90
10828;DHT22;5467;59.334;13.512;2023-04-28T12:39:39;11.70;99.90
10828;DHT22;5467;59.334;13.512;2023-04-28T12:42:07;11.50;99.90
10828;DHT22;5467;59.334;13.512;2023-04-28T12:44:35;11.50;99.90
10828;DHT22;5467;59.334;13.512;2023-04-28T12:47:03;11.40;99.90
10828;DHT22;5467;59.334;13.512;2023-04-28T12:49:32;11.40;99.90
10828;DHT22;5467;59.334;13.512;2023-04-28T12:51:59;11.30;99.90
10828;DHT22;5467;59.334;13.512;2023-04-28T12:54:28;11.30;99.90
10828;DHT22;5467;59.334;13.512;2023-04-28T12:56:58;11.20;99.90
10828;DHT22;5467;59.334;13.512;2023-04-28T12:59:25;11.00;99.90
10828;DHT22;5467;59.334;13.512;2023-04-28T13:01:53;11.10;99.90
10828;DHT22;5467;59.334;13.512;2023-04-28T13:04:21;11.20;99.90
10828;DHT22;5467;59.334;13.512;2023-04-28T13:06:48;11.40;99.90
10828;DHT22;5467;59.334;13.512;2023-04-28T13:09:15;11.50;99.90
10828;DHT22;5467;59.334;13.512;2023-04-28T13:11:44;11.50;99.90
10828;DHT22;5467;59.334;13.512;2023-04-28T13:14:12;11.60;99.90
10828;DHT22;5467;59.334;13.512;2023-04-28T13:16:39;11.50;99.90
10828;DHT22;5467;59.334;13.512;2023-04-28T13:19:06;11.30;99.90
10828;DHT22;5467;59.334;13.512;2023-04-28T13:21:35;11.20;99.90
10828;DHT22;5467;59.334;13.512;2023-04-28T13:24:04;11.00;99.90
10828;DHT22;5467;59.334;13.512;2023-04-28T13:26:31;10.80;99.90
10828;DHT22;5467;59.334;13.512;2023-04-28T13:29:00;10.60;99.90
10828;DHT22;5467;59.334;13.512;2023-04-28T13:31:28;10.70;99.90
10828;DHT22;5467;59.334;13.512;2023-04-28T13:33:56;10.80;99.90
10828;DHT22;5467;59.334;13.512;2023-04-28T13:36:26;10.80;99.90
10828;DHT22;5467;59.334;13.512;2023-04-28T13:38:55;10.70;99.90
10828;DHT22;5467;59.334;13.512;2023-04-28T13:41:22;10.70;99.90
10828;DHT22;5467;59.334;13.512;2023-04-28T13:43:52;10.60;99.90
10828;DHT22;5467;59.334;13.512;2023-04-28T13:46:21;10.60;99.90
10828;DHT22;5467;59.334;13.512;2023-04-28T13:48:48;10.50;99.90
10828;DHT22;5467;59.334;13.512;2023-04-28T13:51:16;10.50;99.90
10828;DHT22;5467;59.334;13.512;2023-04-28T13:53:43;10.40;99.90
10828;DHT22;5467;59.334;13.512;2023-04-28T13:56:10;10.50;99.90
10828;DHT22;5467;59.334;13.512;2023-04-28T13:58:37;10.50;99.90
10828;DHT22;5467;59.334;13.512;2023-04-28T14:01:05;10.70;99.90
10828;DHT22;5467;59.334;13.512;2023-04-28T14:03:34;10.70;99.90
10828;DHT22;5467;59.334;13.512;2023-04-28T14:06:01;10.70;99.90
10828;DHT22;5467;59.334;13.512;2023-04-28T14:08:29;10.70;99.90
10828;DHT22;5467;59.334;13.512;2023-04-28T14:10:57;10.60;99.90
10828;DHT22;5467;59.334;13.512;2023-04-28T14:13:24;10.60;99.90
10828;DHT22;5467;59.334;13.512;2023-04-28T14:15:51;10.80;99.90
10828;DHT22;5467;59.334;13.512;2023-04-28T14:18:19;10.80;99.90
10828;DHT22;5467;59.334;13.512;2023-04-28T14:20:47;10.90;99.90
10828;DHT22;5467;59.334;13.512;2023-04-28T14:23:15;10.70;99.90
10828;DHT22;5467;59.334;13.512;2023-04-28T14:25:42;10.60;99.90
10828;DHT22;5467;59.334;13.512;2023-04-28T14:28:09;10.50;99.90
10828;DHT22;5467;59.334;13.512;2023-04-28T14:30:37;10.50;99.90
10828;DHT22;5467;59.334;13.512;2023-04-28T14:33:04;10.60;99.90
10828;DHT22;5467;59.334;13.512;2023-04-28T14:35:32;10.70;99.90
10828;DHT22;5467;59.334;13.512;2023-04-28T14:38:01;10.70;99.90
10828;DHT22;5467;59.334;13.512;2023-04-28T14:40:28;10.50;99.90
10828;DHT22;5467;59.334;13.512;2023-04-28T14:42:56;10.50;99.90
10828;DHT22;5467;59.334;13.512;2023-04-28T14:45:23;10.40;99.90
10828;DHT22;5467;59.334;13.512;2023-04-28T14:47:51;10.40;99.90
10828;DHT22;5467;59.334;13.512;2023-04-28T14:50:18;10.40;99.90
10828;DHT22;5467;59.334;13.512;2023-04-28T14:52:45;10.30;99.90
10828;DHT22;5467;59.334;13.512;2023-04-28T14:55:14;10.40;99.90
10828;DHT22;5467;59.334;13.512;2023-04-28T14:57:41;10.50;99.90
10828;DHT22;5467;59.334;13.512;2023-04-28T15:00:09;10.60;99.90
10828;DHT22;5467;59.334;13.512;2023-04-28T15:02:36;10.50;99.90
10828;DHT22;5467;59.334;13.512;2023-04-28T15:05:04;10.40;99.90
10828;DHT22;5467;59.334;13.512;2023-04-28T15:07:32;10.40;99.90
10828;DHT22;5467;59.334;13.512;2023-04-28T15:09:59;10.40;99.90
10828;DHT22;5467;59.334;13.512;2023-04-28T15:12:28;10.40;99.90
10828;DHT22;5467;59.334;13.512;2023-04-28T15:14:56;10.50;99.90
10828;DHT22;5467;59.334;13.512;2023-04-28T15:17:24;10.60;99.90
10828;DHT22;5467;59.334;13.512;2023-04-28T15:19:51;10.40;99.90
10828;DHT22;5467;59.334;13.512;2023-04-28T15:22:18;10.30;99.90
10828;DHT22;5467;59.334;13.512;2023-04-28T15:24:46;10.10;99.90
10828;DHT22;5467;59.334;13.512;2023-04-28T15:27:13;10.10;99.90
10828;DHT22;5467;59.334;13.512;2023-04-28T15:29:42;10.00;99.90
10828;DHT22;5467;59.334;13.512;2023-04-28T15:32:09;10.10;99.90
10828;DHT22;5467;59.334;13.512;2023-04-28T15:34:36;10.10;99.90
10828;DHT22;5467;59.334;13.512;2023-04-28T15:37:08;10.20;99.90
10828;DHT22;5467;59.334;13.512;2023-04-28T15:39:54;10.10;99.90
10828;DHT22;5467;59.334;13.512;2023-04-28T15:42:22;10.10;99.90
10828;DHT22;5467;59.334;13.512;2023-04-28T15:44:50;10.20;99.90
10828;DHT22;5467;59.334;13.512;2023-04-28T15:47:19;10.20;99.90
10828;DHT22;5467;59.334;13.512;2023-04-28T15:49:46;10.20;99.90